MET'MAP v2.0
soon released !

Expected late october,
this new version will be
more efficient, smarter,
and hosted on a brand new
server x3 powerfull...
...and still free !


Not compatible ?
Try the mobile version !

LOG IN : | Subscribe | Disclaimer | Who is Orbifly ? |
ICAO code :
Legend : VFR Marginal VFR IFR Intensive IFR Very Intensive IFR
Visi :
Ceiling :
>= 8 km
>= 3000ft
5 to 8 km
1000 to 3000 ft
1500m to 5 km
500 to 1000 ft
800 to 1500m
200 to 500 ft
< 800m
< 200 ft

METAR - EGMH Manston Kent Canterbury - 21 Sep 2019 05:17 UTC
Data Sources :     NOAA   



- Airport Elevation : 178 ft
- IATA code : MSE
- Download approach charts
- No reported NOTAMs.


EGMH - Manston Kent Canterbury

Latest METAR recorded : 2014/05/15 15:50 EGMH 151550Z 11008KT 070V130 9999 FEW020 15/08 Q1036 R/EGMHRIP
Expired Forecast.

Source NOAA


MET'MAP, your aeronautical weather chart ! - Copyright ORBIFLY December 2007

Programming & Development : Alexandra Zaïnal
Co-Developer : Marc-Olivier Méhu
Technical & hardware support : Manuel Goepfert
Concept & Financing : Baudouin d'Aumeries